Crown Princess — ZCDM6 — position and weather

sailwx.info

Track history (hours):
 
Tides and Currents Weather Stations Pressure Air Temp Water Temp Dewpoint Dewpoint Depression Visibility Wind Speed Wind Dir Waves Ship Positions

Crown Princess

Last reported at 2018-Jun-21 20:01 UTC. Time now 2018-Jun-21 20:04 UTC.
Position N 40°40' E 013°32'.

Type: Passenger vessel. MMSI: 310500000.

Date/timePositionNaut miles runAvg speedWind from/ knotsBaromVisibWave heightAir tempDewpointWater temp
2018-Jun-21 20:01N 40°40' E 013°32'918.6
2018-Jun-21 19:31N 40°38' E 013°44'918.0
2018-Jun-21 19:01N 40°36' E 013°55'816.2
2018-Jun-21 18:31N 40°40' E 014°05'815.7
2018-Jun-21 18:01N 40°45' E 014°13'611.6
2018-Jun-21 17:30N 40°50' E 014°16'1 1.1
2018-Jun-21 17:00N 40°50' E 014°16'0 0.0
2018-Jun-21 16:30N 40°50' E 014°16'0 0.0
2018-Jun-21 16:00N 40°50' E 014°16'0 0.0
2018-Jun-21 15:30N 40°50' E 014°16'0 0.0
2018-Jun-21 15:00N 40°50' E 014°16'0 0.0
2018-Jun-21 14:30N 40°50' E 014°16'0 0.0
2018-Jun-21 14:00N 40°50' E 014°16'0 0.0
2018-Jun-21 13:30N 40°50' E 014°16'0 0.0
2018-Jun-21 13:00N 40°50' E 014°16'0 0.0
2018-Jun-21 12:29N 40°50' E 014°16'0 0.0
2018-Jun-21 11:56N 40°50' E 014°16'0 0.0
2018-Jun-21 11:29N 40°50' E 014°16'0 0.0
2018-Jun-21 10:59N 40°50' E 014°16'0 0.0
2018-Jun-21 10:29N 40°50' E 014°16'0 0.0
2018-Jun-21 09:59N 40°50' E 014°16'0 0.0
2018-Jun-21 09:29N 40°50' E 014°16'0 0.0
2018-Jun-21 08:59N 40°50' E 014°16'0 0.0
2018-Jun-21 08:30N 40°50' E 014°16'0 0.0
2018-Jun-21 08:00N 40°50' E 014°16'0 0.0
2018-Jun-21 07:30N 40°50' E 014°16'0 0.0
2018-Jun-21 07:00N 40°50' E 014°16'0 0.0
2018-Jun-21 06:30N 40°50' E 014°16'0 0.0
2018-Jun-21 06:00N 40°50' E 014°16'0 0.0
2018-Jun-21 05:30N 40°50' E 014°16'0 0.0
2018-Jun-21 05:00N 40°50' E 014°16'0 0.5
2018-Jun-21 04:31N 40°50' E 014°16'3 6.8
2018-Jun-21 04:00N 40°47' E 014°17'817.0
2018-Jun-21 03:30N 40°39' E 014°12'1018.3
2018-Jun-21 02:59N 40°30' E 014°09'817.8
2018-Jun-21 02:31N 40°23' E 014°15'918.3
2018-Jun-21 02:00N 40°15' E 014°20'1019.7
2018-Jun-21 01:30N 40°06' E 014°27'1119.5
2018-Jun-21 00:56N 39°56' E 014°34'819.4
2018-Jun-21 00:30N 39°49' E 014°40'1219.4
2018-Jun-20 23:52N 39°38' E 014°47'4419.6
2018-Jun-20 21:37N 38°60' E 015°15'519.7
2018-Jun-20 21:21N 38°56' E 015°19'819.8
2018-Jun-20 20:57N 38°48' E 015°22'919.6
2018-Jun-20 20:30N 38°40' E 015°27'1019.2
2018-Jun-20 20:00N 38°31' E 015°32'917.5
2018-Jun-20 19:30N 38°24' E 015°37'815.6
2018-Jun-20 19:00N 38°17' E 015°43'714.2
2018-Jun-20 18:30N 38°12' E 015°36'2 3.9
2018-Jun-20 17:55N 38°12' E 015°33'0 0.0
2018-Jun-20 17:25N 38°12' E 015°33'0 0.0
2018-Jun-20 16:55N 38°12' E 015°33'0 0.0
2018-Jun-20 16:25N 38°12' E 015°33'0 0.0
2018-Jun-20 15:49N 38°12' E 015°33'0 0.0
2018-Jun-20 15:25N 38°12' E 015°33'0 0.0
2018-Jun-20 14:55N 38°12' E 015°33'0 0.0
2018-Jun-20 14:25N 38°12' E 015°33'0 0.0
2018-Jun-20 13:55N 38°12' E 015°33'0 0.0
2018-Jun-20 13:25N 38°12' E 015°33'0 0.0
2018-Jun-20 12:55N 38°12' E 015°33'0 0.0
2018-Jun-20 12:25N 38°12' E 015°33'0 0.0
2018-Jun-20 11:55N 38°12' E 015°33'0 0.0
2018-Jun-20 11:25N 38°12' E 015°33'0 0.0
2018-Jun-20 10:55N 38°12' E 015°33'0 0.0
2018-Jun-20 10:25N 38°12' E 015°33'0 0.0
2018-Jun-20 09:55N 38°12' E 015°33'0 0.0
2018-Jun-20 09:31N 38°12' E 015°34'3 5.4
2018-Jun-20 09:00N 38°12' E 015°37'714.4
2018-Jun-20 08:31N 38°05' E 015°36'1019.2
2018-Jun-20 08:01N 37°56' E 015°39'1018.3
2018-Jun-20 07:27N 37°51' E 015°51'254 5.0
2018-Jun-18 05:00N 36°48' E 021°00'137 4.0 330 / 141009.610.8 22.018.924.0
2018-Jun-16 18:44N 37°22' E 023°47'313.5
2018-Jun-16 18:29N 37°26' E 023°46'613.5
2018-Jun-16 18:00N 37°32' E 023°44'713.6
2018-Jun-16 17:31N 37°39' E 023°43'713.3
2018-Jun-16 17:01N 37°45' E 023°40'613.0
2018-Jun-16 16:31N 37°51' E 023°37'611.0
2018-Jun-16 16:01N 37°56' E 023°37'0 0.4
2018-Jun-16 15:30N 37°56' E 023°37'0 0.0
2018-Jun-16 15:00N 37°56' E 023°37'0 0.0
2018-Jun-16 14:30N 37°56' E 023°37'0 0.0
2018-Jun-16 14:00N 37°56' E 023°37'0 0.0
2018-Jun-16 13:30N 37°56' E 023°37'0 0.0
2018-Jun-16 13:00N 37°56' E 023°37'0 0.0
2018-Jun-16 12:30N 37°56' E 023°37'0 0.0
2018-Jun-16 12:00N 37°56' E 023°37'0 0.0
2018-Jun-16 11:29N 37°56' E 023°37'0 0.0
2018-Jun-16 11:00N 37°56' E 023°37'0 0.0
2018-Jun-16 10:30N 37°56' E 023°37'0 0.0
2018-Jun-16 09:59N 37°56' E 023°37'0 0.0
2018-Jun-16 09:30N 37°56' E 023°37'0 0.0
2018-Jun-16 09:00N 37°56' E 023°37'0 0.0
2018-Jun-16 08:30N 37°56' E 023°37'0 0.0
2018-Jun-16 08:00N 37°56' E 023°37'0 0.0
2018-Jun-16 07:30N 37°56' E 023°37'0 0.0
2018-Jun-16 06:59N 37°56' E 023°37'0 0.0
2018-Jun-16 06:30N 37°56' E 023°37'0 0.0
2018-Jun-16 06:00N 37°56' E 023°37'0 0.0
2018-Jun-16 05:30N 37°56' E 023°37'0 0.0
2018-Jun-16 05:00N 37°56' E 023°37'0 0.0
2018-Jun-16 04:30N 37°56' E 023°37'0 0.0
2018-Jun-16 03:59N 37°56' E 023°37'0 0.0
2018-Jun-16 03:30N 37°56' E 023°37'0 0.0
2018-Jun-16 03:00N 37°56' E 023°37'0 0.0
2018-Jun-16 02:30N 37°56' E 023°37'0 0.0
2018-Jun-16 02:00N 37°56' E 023°37'0 0.0
2018-Jun-16 01:29N 37°56' E 023°37'0 0.0
2018-Jun-16 01:00N 37°56' E 023°37'0 0.6
2018-Jun-16 00:30N 37°56' E 023°37'2 3.2
2018-Jun-16 00:00N 37°55' E 023°38'510.8
2018-Jun-15 23:30N 37°50' E 023°40'611.6
2018-Jun-15 23:00N 37°44' E 023°43'611.5
2018-Jun-15 22:30N 37°39' E 023°45'612.8
2018-Jun-15 22:00N 37°32' E 023°45'612.4
2018-Jun-15 21:30N 37°26' E 023°46'4811.2
2018-Jun-15 17:14N 37°19' E 024°45'314.4
2018-Jun-15 17:00N 37°19' E 024°49'713.3
2018-Jun-15 16:31N 37°21' E 024°58'713.2
2018-Jun-15 16:01N 37°24' E 025°05'713.1
2018-Jun-15 15:31N 37°28' E 025°12'611.8
2018-Jun-15 15:01N 37°28' E 025°19'0 0.1
2018-Jun-15 14:28N 37°28' E 025°19'0 0.0
2018-Jun-15 13:58N 37°28' E 025°19'0 0.0
2018-Jun-15 13:28N 37°28' E 025°19'0 0.0
2018-Jun-15 12:58N 37°28' E 025°19'0 0.0
2018-Jun-15 12:20N 37°28' E 025°19'0 0.0
2018-Jun-15 12:00N 37°28' E 025°19'0 0.0
2018-Jun-15 11:30N 37°28' E 025°19'0 0.0
2018-Jun-15 11:00N 37°28' E 025°19'0 0.0
2018-Jun-15 10:30N 37°28' E 025°19'0 0.0
2018-Jun-15 10:00N 37°28' E 025°19'0 0.0
2018-Jun-15 09:30N 37°28' E 025°19'0 0.0
2018-Jun-15 09:00N 37°28' E 025°19'0 0.0
2018-Jun-15 08:30N 37°28' E 025°19'0 0.0
2018-Jun-15 08:00N 37°28' E 025°19'0 0.0
2018-Jun-15 07:30N 37°28' E 025°19'0 0.0
2018-Jun-15 07:00N 37°28' E 025°19'0 0.0
2018-Jun-15 06:30N 37°28' E 025°19'0 0.0
2018-Jun-15 06:00N 37°28' E 025°19'0 0.0
2018-Jun-15 05:30N 37°28' E 025°19'0 0.0
2018-Jun-15 05:00N 37°28' E 025°19'0 0.0
2018-Jun-15 04:30N 37°28' E 025°19'0 0.0
2018-Jun-15 04:00N 37°28' E 025°19'0 0.1
2018-Jun-15 03:30N 37°28' E 025°19'3 5.9
2018-Jun-15 03:00N 37°27' E 025°16'713.1
2018-Jun-15 02:30N 37°24' E 025°08'815.8
2018-Jun-15 02:00N 37°17' E 025°04'816.7
2018-Jun-15 01:30N 37°10' E 024°60'2717.0
2018-Jun-14 23:54N 36°44' E 024°47'1419.2
2018-Jun-14 23:11N 36°31' E 024°41'317.8
2018-Jun-14 23:00N 36°28' E 024°40'917.5
2018-Jun-14 22:30N 36°20' E 024°36'2719.2
2018-Jun-14 21:07N 35°55' E 024°24'219.2
2018-Jun-14 21:00N 35°53' E 024°23'1019.1
2018-Jun-14 20:30N 35°44' E 024°19'1019.1
2018-Jun-14 20:00N 35°35' E 024°15'11 0.9
2018-Jun-14 08:15N 35°30' E 024°04'6 5.5
2018-Jun-14 07:13N 35°29' E 024°11'313.9
2018-Jun-14 07:01N 35°31' E 024°14'26018.5
2018-Jun-13 17:00N 38°30' E 020°18'245 6.8 270 / 41007.310.8 25.521.023.0
2018-Jun-12 05:00N 42°24' E 018°42'   1009.410.8 23.016.523.0
Track history (hours):
 
Tides and Currents Weather Stations Pressure Air Temp Water Temp Dewpoint Dewpoint Depression Visibility Wind Speed Wind Dir Waves Ship Positions

Crown Princess

Last reported at 2018-Jun-21 20:01 UTC. Time now 2018-Jun-21 20:04 UTC.
Position N 40°40' E 013°32'.

Type: Passenger vessel. MMSI: 310500000.

Date/timePositionNaut miles runAvg speedWind from/ knotsBaromVisibWave heightAir tempDewpointWater temp
2018-Jun-21 20:01N 40°40' E 013°32'918.6
2018-Jun-21 19:31N 40°38' E 013°44'918.0
2018-Jun-21 19:01N 40°36' E 013°55'816.2
2018-Jun-21 18:31N 40°40' E 014°05'815.7
2018-Jun-21 18:01N 40°45' E 014°13'611.6
2018-Jun-21 17:30N 40°50' E 014°16'1 1.1
2018-Jun-21 17:00N 40°50' E 014°16'0 0.0
2018-Jun-21 16:30N 40°50' E 014°16'0 0.0
2018-Jun-21 16:00N 40°50' E 014°16'0 0.0
2018-Jun-21 15:30N 40°50' E 014°16'0 0.0
2018-Jun-21 15:00N 40°50' E 014°16'0 0.0
2018-Jun-21 14:30N 40°50' E 014°16'0 0.0
2018-Jun-21 14:00N 40°50' E 014°16'0 0.0
2018-Jun-21 13:30N 40°50' E 014°16'0 0.0
2018-Jun-21 13:00N 40°50' E 014°16'0 0.0
2018-Jun-21 12:29N 40°50' E 014°16'0 0.0
2018-Jun-21 11:56N 40°50' E 014°16'0 0.0
2018-Jun-21 11:29N 40°50' E 014°16'0 0.0
2018-Jun-21 10:59N 40°50' E 014°16'0 0.0
2018-Jun-21 10:29N 40°50' E 014°16'0 0.0
2018-Jun-21 09:59N 40°50' E 014°16'0 0.0
2018-Jun-21 09:29N 40°50' E 014°16'0 0.0
2018-Jun-21 08:59N 40°50' E 014°16'0 0.0
2018-Jun-21 08:30N 40°50' E 014°16'0 0.0
2018-Jun-21 08:00N 40°50' E 014°16'0 0.0
2018-Jun-21 07:30N 40°50' E 014°16'0 0.0
2018-Jun-21 07:00N 40°50' E 014°16'0 0.0
2018-Jun-21 06:30N 40°50' E 014°16'0 0.0
2018-Jun-21 06:00N 40°50' E 014°16'0 0.0
2018-Jun-21 05:30N 40°50' E 014°16'0 0.0
2018-Jun-21 05:00N 40°50' E 014°16'0 0.5
2018-Jun-21 04:31N 40°50' E 014°16'3 6.8
2018-Jun-21 04:00N 40°47' E 014°17'817.0
2018-Jun-21 03:30N 40°39' E 014°12'1018.3
2018-Jun-21 02:59N 40°30' E 014°09'817.8
2018-Jun-21 02:31N 40°23' E 014°15'918.3
2018-Jun-21 02:00N 40°15' E 014°20'1019.7
2018-Jun-21 01:30N 40°06' E 014°27'1119.5
2018-Jun-21 00:56N 39°56' E 014°34'819.4
2018-Jun-21 00:30N 39°49' E 014°40'1219.4
2018-Jun-20 23:52N 39°38' E 014°47'4419.6
2018-Jun-20 21:37N 38°60' E 015°15'519.7
2018-Jun-20 21:21N 38°56' E 015°19'819.8
2018-Jun-20 20:57N 38°48' E 015°22'919.6
2018-Jun-20 20:30N 38°40' E 015°27'1019.2
2018-Jun-20 20:00N 38°31' E 015°32'917.5
2018-Jun-20 19:30N 38°24' E 015°37'815.6
2018-Jun-20 19:00N 38°17' E 015°43'714.2
2018-Jun-20 18:30N 38°12' E 015°36'2 3.9
2018-Jun-20 17:55N 38°12' E 015°33'0 0.0
2018-Jun-20 17:25N 38°12' E 015°33'0 0.0
2018-Jun-20 16:55N 38°12' E 015°33'0 0.0
2018-Jun-20 16:25N 38°12' E 015°33'0 0.0
2018-Jun-20 15:49N 38°12' E 015°33'0 0.0
2018-Jun-20 15:25N 38°12' E 015°33'0 0.0
2018-Jun-20 14:55N 38°12' E 015°33'0 0.0
2018-Jun-20 14:25N 38°12' E 015°33'0 0.0
2018-Jun-20 13:55N 38°12' E 015°33'0 0.0
2018-Jun-20 13:25N 38°12' E 015°33'0 0.0
2018-Jun-20 12:55N 38°12' E 015°33'0 0.0
2018-Jun-20 12:25N 38°12' E 015°33'0 0.0
2018-Jun-20 11:55N 38°12' E 015°33'0 0.0
2018-Jun-20 11:25N 38°12' E 015°33'0 0.0
2018-Jun-20 10:55N 38°12' E 015°33'0 0.0
2018-Jun-20 10:25N 38°12' E 015°33'0 0.0
2018-Jun-20 09:55N 38°12' E 015°33'0 0.0
2018-Jun-20 09:31N 38°12' E 015°34'3 5.4
2018-Jun-20 09:00N 38°12' E 015°37'714.4
2018-Jun-20 08:31N 38°05' E 015°36'1019.2
2018-Jun-20 08:01N 37°56' E 015°39'1018.3
2018-Jun-20 07:27N 37°51' E 015°51'254 5.0
2018-Jun-18 05:00N 36°48' E 021°00'137 4.0 330 / 141009.610.8 22.018.924.0
2018-Jun-16 18:44N 37°22' E 023°47'313.5
2018-Jun-16 18:29N 37°26' E 023°46'613.5
2018-Jun-16 18:00N 37°32' E 023°44'713.6
2018-Jun-16 17:31N 37°39' E 023°43'713.3
2018-Jun-16 17:01N 37°45' E 023°40'613.0
2018-Jun-16 16:31N 37°51' E 023°37'611.0
2018-Jun-16 16:01N 37°56' E 023°37'0 0.4
2018-Jun-16 15:30N 37°56' E 023°37'0 0.0
2018-Jun-16 15:00N 37°56' E 023°37'0 0.0
2018-Jun-16 14:30N 37°56' E 023°37'0 0.0
2018-Jun-16 14:00N 37°56' E 023°37'0 0.0
2018-Jun-16 13:30N 37°56' E 023°37'0 0.0
2018-Jun-16 13:00N 37°56' E 023°37'0 0.0
2018-Jun-16 12:30N 37°56' E 023°37'0 0.0
2018-Jun-16 12:00N 37°56' E 023°37'0 0.0
2018-Jun-16 11:29N 37°56' E 023°37'0 0.0
2018-Jun-16 11:00N 37°56' E 023°37'0 0.0
2018-Jun-16 10:30N 37°56' E 023°37'0 0.0
2018-Jun-16 09:59N 37°56' E 023°37'0 0.0
2018-Jun-16 09:30N 37°56' E 023°37'0 0.0
2018-Jun-16 09:00N 37°56' E 023°37'0 0.0
2018-Jun-16 08:30N 37°56' E 023°37'0 0.0
2018-Jun-16 08:00N 37°56' E 023°37'0 0.0
2018-Jun-16 07:30N 37°56' E 023°37'0 0.0
2018-Jun-16 06:59N 37°56' E 023°37'0 0.0
2018-Jun-16 06:30N 37°56' E 023°37'0 0.0
2018-Jun-16 06:00N 37°56' E 023°37'0 0.0
2018-Jun-16 05:30N 37°56' E 023°37'0 0.0
2018-Jun-16 05:00N 37°56' E 023°37'0 0.0
2018-Jun-16 04:30N 37°56' E 023°37'0 0.0
2018-Jun-16 03:59N 37°56' E 023°37'0 0.0
2018-Jun-16 03:30N 37°56' E 023°37'0 0.0
2018-Jun-16 03:00N 37°56' E 023°37'0 0.0
2018-Jun-16 02:30N 37°56' E 023°37'0 0.0
2018-Jun-16 02:00N 37°56' E 023°37'0 0.0
2018-Jun-16 01:29N 37°56' E 023°37'0 0.0
2018-Jun-16 01:00N 37°56' E 023°37'0 0.6
2018-Jun-16 00:30N 37°56' E 023°37'2 3.2
2018-Jun-16 00:00N 37°55' E 023°38'510.8
2018-Jun-15 23:30N 37°50' E 023°40'611.6
2018-Jun-15 23:00N 37°44' E 023°43'611.5
2018-Jun-15 22:30N 37°39' E 023°45'612.8
2018-Jun-15 22:00N 37°32' E 023°45'612.4
2018-Jun-15 21:30N 37°26' E 023°46'4811.2
2018-Jun-15 17:14N 37°19' E 024°45'314.4
2018-Jun-15 17:00N 37°19' E 024°49'713.3
2018-Jun-15 16:31N 37°21' E 024°58'713.2
2018-Jun-15 16:01N 37°24' E 025°05'713.1
2018-Jun-15 15:31N 37°28' E 025°12'611.8
2018-Jun-15 15:01N 37°28' E 025°19'0 0.1
2018-Jun-15 14:28N 37°28' E 025°19'0 0.0
2018-Jun-15 13:58N 37°28' E 025°19'0 0.0
2018-Jun-15 13:28N 37°28' E 025°19'0 0.0
2018-Jun-15 12:58N 37°28' E 025°19'0 0.0
2018-Jun-15 12:20N 37°28' E 025°19'0 0.0
2018-Jun-15 12:00N 37°28' E 025°19'0 0.0
2018-Jun-15 11:30N 37°28' E 025°19'0 0.0
2018-Jun-15 11:00N 37°28' E 025°19'0 0.0
2018-Jun-15 10:30N 37°28' E 025°19'0 0.0
2018-Jun-15 10:00N 37°28' E 025°19'0 0.0
2018-Jun-15 09:30N 37°28' E 025°19'0 0.0
2018-Jun-15 09:00N 37°28' E 025°19'0 0.0
2018-Jun-15 08:30N 37°28' E 025°19'0 0.0
2018-Jun-15 08:00N 37°28' E 025°19'0 0.0
2018-Jun-15 07:30N 37°28' E 025°19'0 0.0
2018-Jun-15 07:00N 37°28' E 025°19'0 0.0
2018-Jun-15 06:30N 37°28' E 025°19'0 0.0
2018-Jun-15 06:00N 37°28' E 025°19'0 0.0
2018-Jun-15 05:30N 37°28' E 025°19'0 0.0
2018-Jun-15 05:00N 37°28' E 025°19'0 0.0
2018-Jun-15 04:30N 37°28' E 025°19'0 0.0
2018-Jun-15 04:00N 37°28' E 025°19'0 0.1
2018-Jun-15 03:30N 37°28' E 025°19'3 5.9
2018-Jun-15 03:00N 37°27' E 025°16'713.1
2018-Jun-15 02:30N 37°24' E 025°08'815.8
2018-Jun-15 02:00N 37°17' E 025°04'816.7
2018-Jun-15 01:30N 37°10' E 024°60'2717.0
2018-Jun-14 23:54N 36°44' E 024°47'1419.2
2018-Jun-14 23:11N 36°31' E 024°41'317.8
2018-Jun-14 23:00N 36°28' E 024°40'917.5
2018-Jun-14 22:30N 36°20' E 024°36'2719.2
2018-Jun-14 21:07N 35°55' E 024°24'219.2
2018-Jun-14 21:00N 35°53' E 024°23'1019.1
2018-Jun-14 20:30N 35°44' E 024°19'1019.1
2018-Jun-14 20:00N 35°35' E 024°15'11 0.9
2018-Jun-14 08:15N 35°30' E 024°04'6 5.5
2018-Jun-14 07:13N 35°29' E 024°11'313.9
2018-Jun-14 07:01N 35°31' E 024°14'26018.5
2018-Jun-13 17:00N 38°30' E 020°18'245 6.8 270 / 41007.310.8 25.521.023.0
2018-Jun-12 05:00N 42°24' E 018°42'   1009.410.8 23.016.523.0

Dump ship's entire track history